• Join FlightAware (Why Join?)
  • Login
  • US Flag 
11:38PM EDT


 

Airport Tracker/Info


-or-


 

Live Flight TrackerFlight Track Log ✈ ASQ4179 ✈ 28-Jun-2013 ✈ KRDU - KIAH

Flight Track Log - Related Links

Times and Time Zones

All times are in EDT time to prevent confusion due to time zone crossing. See the ASQ4179 flight status page for this flight to view local times or setup timezone preferences in your user account.

Time Position Orientation Groundspeed Altitude Reporting Facility
EDT Latitude Longitude Course Direction KTS MPH feet Rate Location/Type
06:04AM 35.8664 -78.8139 261° West 168 193 1,200  Level Washington Center
06:05AM 35.8278 -78.8583 223° Southwest 186 214 3,100 1,800 Climbing Washington Center
06:06AM 35.8427 -79.1904 263° West  Level FlightAware Approximate
06:06AM 35.8233 -78.9375 266° West 252 290 5,100  Level Washington Center
06:07AM 35.8305 -79.3259 262° West  Level FlightAware Approximate
06:07AM 35.8283 -79.0583 273° West 262 302 8,600  Level Washington Center
06:08AM 35.8167 -79.4613 270° West  Level FlightAware Approximate
06:08AM 35.8319 -79.1481 273° West 262 302 10,600  Level Washington Center
06:09AM 35.7953 -79.5875 261° West  Level FlightAware Approximate
06:09AM 35.8333 -79.2403 271° West 271 312 12,000  Level Washington Center
06:10AM 35.8322 -79.3478 269° West 293 337 13,300 1,200 Climbing Washington Center
06:12AM 35.8139 -79.5625 264° West 335 386 15,400 1,020 Climbing Atlanta Center
06:13AM 35.7931 -79.6789 258° West 335 386 16,300 1,080 Climbing Atlanta Center
06:14AM 35.7742 -79.7900 258° West 354 407 17,600 1,380 Climbing Atlanta Center
06:15AM 35.7531 -79.9061 257° West 361 415 19,100 1,620 Climbing Atlanta Center
06:16AM 35.7319 -80.0250 258° West 361 415 20,900 1,440 Climbing Atlanta Center
06:17AM 35.7106 -80.1436 258° West 355 409 22,000 1,380 Climbing Atlanta Center
06:18AM 35.6897 -80.2700 259° West 355 409 23,700 1,440 Climbing Atlanta Center
06:19AM 35.6703 -80.3858 258° West 350 403 24,900 1,140 Climbing Atlanta Center
06:20AM 35.6422 -80.4969 253° West 350 403 26,000 1,200 Climbing Atlanta Center
06:21AM 35.5886 -80.5964 236° Southwest 345 397 27,300 1,200 Climbing Atlanta Center
06:22AM 35.5411 -80.6878 237° Southwest 350 403 28,400 1,200 Climbing Atlanta Center
06:23AM 35.4872 -80.7842 236° Southwest 356 410 29,800 1,380 Climbing Atlanta Center
06:24AM 35.4336 -80.8833 236° Southwest 356 410 31,200 1,200 Climbing Atlanta Center
06:25AM 35.3797 -80.9819 236° Southwest 356 410 32,300 1,140 Climbing Atlanta Center
06:26AM 35.3219 -81.0936 238° Southwest 356 410 33,500 1,080 Climbing Atlanta Center
06:27AM 35.2681 -81.1897 236° Southwest 356 410 34,500 900 Climbing Atlanta Center
06:28AM 35.2158 -81.2881 237° Southwest 351 404 35,400 660 Climbing Atlanta Center
06:29AM 35.1639 -81.3864 237° Southwest 351 404 35,900 300 Climbing Atlanta Center
06:30AM 35.1075 -81.4847 235° Southwest 351 404 36,000  Climbing Atlanta Center
06:31AM 35.0511 -81.5903 237° Southwest 366 421 36,000  Level Atlanta Center
06:32AM 34.9969 -81.6908 237° Southwest 385 443 36,000  Level Atlanta Center
06:33AM 34.9322 -81.8042 235° Southwest 402 463 36,000  Level Atlanta Center
06:34AM 34.8656 -81.9250 236° Southwest 420 483 36,000  Level Atlanta Center
06:35AM 34.8006 -82.0431 236° Southwest 431 496 36,000  Level Atlanta Center
06:36AM 34.7256 -82.1686 234° Southwest 446 513 36,000  Level Atlanta Center
06:37AM 34.6564 -82.2964 237° Southwest 452 520 36,000  Level Atlanta Center
06:38AM 34.5828 -82.4189 234° Southwest 457 526 36,000  Level Atlanta Center
06:39AM 34.5133 -82.5389 235° Southwest 452 520 36,000  Level Atlanta Center
06:40AM 34.4419 -82.6611 235° Southwest 452 520 36,000  Level Atlanta Center
06:41AM 34.3681 -82.7856 234° Southwest 457 526 36,000  Level Atlanta Center
06:42AM 34.3003 -82.9097 237° Southwest 452 520 36,000  Level Atlanta Center
06:43AM 34.2264 -83.0339 234° Southwest 457 526 36,000  Level Atlanta Center
06:44AM 34.1522 -83.1603 235° Southwest 457 526 36,000  Level Atlanta Center
06:45AM 34.0800 -83.2839 235° Southwest 457 526 36,000  Level Atlanta Center
06:46AM 33.9994 -83.4225 235° Southwest 462 532 36,000  Level Atlanta Center
06:47AM 33.9228 -83.5481 234° Southwest 467 537 36,000  Level Atlanta Center
06:48AM 33.8500 -83.6736 235° Southwest 467 537 36,000  Level Atlanta Center
06:49AM 33.7731 -83.8014 234° Southwest 467 537 36,000  Level Atlanta Center
06:50AM 33.6981 -83.9289 235° Southwest 472 543 36,000  Level Atlanta Center
06:51AM 33.6231 -84.0539 234° Southwest 472 543 36,000  Level Atlanta Center
06:52AM 33.5478 -84.1808 235° Southwest 472 543 36,000  Level Atlanta Center
06:53AM 33.4789 -84.2953 234° Southwest 477 549 36,000  Level Atlanta Center
06:54AM 33.4033 -84.4219 234° Southwest 472 543 36,000  Level Atlanta Center
06:55AM 33.3278 -84.5486 235° Southwest 472 543 36,000  Level Atlanta Center
06:56AM 33.2519 -84.6747 234° Southwest 472 543 36,000  Level Atlanta Center
06:57AM 33.1678 -84.8131 234° Southwest 472 543 36,000  Level Atlanta Center
06:58AM 33.0917 -84.9389 234° Southwest 472 543 36,000  Level Atlanta Center
06:59AM 33.0136 -85.0644 233° Southwest 477 549 36,000  Level Atlanta Center
07:00AM 32.9353 -85.1822 232° Southwest 462 532 36,000  Level Atlanta Center
07:01AM 32.8589 -85.3100 235° Southwest 457 526 36,000  Level Atlanta Center
07:02AM 32.7825 -85.4347 234° Southwest 468 539 36,000  Level Atlanta Center
07:03AM 32.7036 -85.5594 233° Southwest 473 544 36,000  Level Atlanta Center
07:04AM 32.6247 -85.6839 233° Southwest 473 544 36,000  Level Atlanta Center
07:05AM 32.5481 -85.8081 234° Southwest 473 544 36,000  Level Atlanta Center
07:06AM 32.4625 -85.9394 232° Southwest 485 558 36,000  Level Atlanta Center
07:07AM 32.3811 -86.0631 232° Southwest 485 558 36,000  Level Atlanta Center
07:08AM 32.3081 -86.1892 236° Southwest 483 556 36,000  Level Atlanta Center
07:09AM 32.2417 -86.2858 231° Southwest 475 547 36,000  Level Atlanta Center
07:10AM 32.1514 -86.4356 235° Southwest 469 540 36,000  Level Atlanta Center
07:11AM 32.0656 -86.5508 229° Southwest 469 540 36,000  Level Atlanta Center
07:12AM 31.9817 -86.6686 230° Southwest 469 540 36,000  Level Atlanta Center
07:13AM 31.8981 -86.7736 227° Southwest 486 559 36,000  Level Atlanta Center
07:14AM 31.8119 -86.8908 229° Southwest 486 559 36,000  Level Atlanta Center
07:15AM 31.7278 -87.0053 229° Southwest 476 548 36,000  Level Atlanta Center
07:16AM 31.6389 -87.1367 232° Southwest 476 548 36,000  Level Atlanta Center
07:17AM 31.5286 -87.2778 228° Southwest 477 549 36,000  Level Houston Center
07:18AM 31.4433 -87.3958 230° Southwest 476 548 36,000  Level Houston Center
07:19AM 31.3561 -87.5139 229° Southwest 479 551 36,000  Level Houston Center
07:20AM 31.2689 -87.6336 230° Southwest 480 552 36,000  Level Houston Center
07:21AM 31.1708 -87.7628 228° Southwest 481 554 36,000  Level Houston Center
07:22AM 31.0836 -87.8814 229° Southwest 480 552 36,000  Level Houston Center
07:23AM 30.9950 -87.9992 229° Southwest 483 556 36,000  Level Houston Center
07:24AM 30.9056 -88.1181 229° Southwest 487 560 36,000  Level Houston Center
07:25AM 30.8156 -88.2358 228° Southwest 488 562 36,000  Level Houston Center
07:26AM 30.7306 -88.3564 231° Southwest 484 557 36,000  Level Houston Center
07:27AM 30.6778 -88.4947 246° West 483 556 36,000  Level Houston Center
07:28AM 30.6189 -88.6675 248° West 480 552 36,000  Level Houston Center
07:29AM 30.5678 -88.8125 248° West 484 557 36,000  Level Houston Center
07:30AM 30.5181 -88.9608 249° West 485 558 36,000  Level Houston Center
07:31AM 30.4675 -89.1056 248° West 486 559 36,000  Level Houston Center
07:32AM 30.4178 -89.2503 248° West 485 558 36,000  Level Houston Center
07:33AM 30.3681 -89.3953 248° West 485 558 36,000  Level Houston Center
07:34AM 30.3167 -89.5397 248° West 484 557 36,000  Level Houston Center
07:35AM 30.2636 -89.6858 247° West 486 559 36,000  Level Houston Center
07:36AM 30.1811 -89.8150 234° Southwest 481 554 36,000  Level Houston Center
07:37AM 30.0850 -89.9136 222° Southwest 462 532 36,000  Level Houston Center
07:39AM 29.9861 -90.0144 221° Southwest 470 541 36,000  Level Houston Center
07:40AM 29.9186 -90.1428 239° Southwest 483 556 36,000  Level Houston Center
07:41AM 29.8908 -90.2903 258° West 474 545 36,000  Level Houston Center
07:42AM 29.8617 -90.4389 257° West 475 547 36,000  Level Houston Center
07:43AM 29.8328 -90.5894 258° West 481 554 36,000  Level Houston Center
07:44AM 29.8039 -90.7389 257° West 480 552 36,000  Level Houston Center
07:45AM 29.7747 -90.8889 257° West 482 555 36,000  Level Houston Center
07:46AM 29.7447 -91.0386 257° West 482 555 36,000  Level Houston Center
07:47AM 29.7158 -91.1903 258° West 485 558 36,000  Level Houston Center
07:48AM 29.6797 -91.3700 257° West 483 556 36,000  Level Houston Center
07:49AM 29.6486 -91.5219 257° West 487 560 36,000  Level Houston Center
07:50AM 29.6183 -91.6728 257° West 487 560 36,000  Level Houston Center
07:51AM 29.5914 -91.8081 257° West 486 559 36,000  Level Houston Center
07:52AM 29.5597 -91.9597 257° West 486 559 36,000  Level Houston Center
07:53AM 29.5219 -92.1408 257° West 487 560 36,000  Level Houston Center
07:54AM 29.4917 -92.2900 257° West 481 554 36,000  Level Houston Center
07:55AM 29.4386 -92.4281 246° West 477 549 36,000  Level Houston Center
07:56AM 29.3628 -92.5506 235° Southwest 470 541 36,000  Level Houston Center
07:57AM 29.2847 -92.6733 234° Southwest 473 544 36,000  Level Houston Center
07:58AM 29.2192 -92.8031 240° Southwest 481 554 36,000  Level Houston Center
07:59AM 29.2275 -92.9525 274° West 483 556 36,000 -1,140 Level Houston Center
08:00AM 29.2725 -93.0981 290° West 488 562 33,800 -2,400 Descending Houston Center
08:01AM 29.3164 -93.2397 290° West 475 547 31,200 -2,580 Descending Houston Center
08:02AM 29.3600 -93.3783 290° West 463 533 28,600 -2,580 Descending Houston Center
08:03AM 29.4033 -93.5186 290° West 466 536 26,000 -2,520 Descending Houston Center
08:04AM 29.4433 -93.6494 289° West 441 507 23,500 -2,640 Descending Houston Center
08:05AM 29.4883 -93.8000 289° West 419 482 20,600 -2,640 Descending Houston Center
08:06AM 29.5167 -93.9244 285° West 408 470 18,200 -2,220 Descending Houston Center
08:07AM 29.5231 -94.0489 273° West 391 450 16,100 -1,980 Descending Houston Center
08:08AM 29.5275 -94.1800 272° West 389 448 14,200 -1,560 Descending Houston Center
08:09AM 29.5319 -94.2967 273° West 373 429 13,000 -840 Descending Houston Center
08:10AM 29.5567 -94.3989 286° West 345 397 12,500 -900 Descending Houston Center
08:11AM 29.5992 -94.4967 297° West 344 396 11,200 -1,200 Descending Houston Center
08:12AM 29.6344 -94.5825 295° West 306 352 10,100 -1,320 Descending Houston Center
08:13AM 29.6575 -94.6369 296° West 299 344 9,200 -1,620 Descending Houston Center
08:14AM 29.7206 -94.7011 319° Northwest 287 330 7,600 -1,500 Descending Houston Center
08:15AM 29.7811 -94.7392 331° Northwest 276 318 6,300 -1,200 Descending Houston Center
08:15AM 29.8103 -94.7556 334° Northwest 281 323 5,800 -1,560 Descending Houston Center
08:16AM 29.8586 -94.7825 334° Northwest 280 322 4,600 -2,160 Descending Houston Center
08:16AM 29.8942 -94.7994 338° Northwest 277 319 3,600 -1,620 Descending Houston Center
08:17AM 29.9203 -94.8325 312° West 263 303 3,000 -720 Descending Houston Center
08:17AM 29.9356 -94.8658 298° West 265 305 2,900  Descending Houston Center
08:18AM 29.9519 -94.9008 298° West 228 262 3,000 -240 Climbing Houston Center
08:18AM 29.9658 -94.9300 299° West 236 272 2,700 -600 Descending Houston Center
08:19AM 29.9783 -94.9961 282° West 223 257 2,100 -360 Descending Houston Center
08:20AM 29.9781 -95.0600 270° West 209 241 2,000 -120 Descending Houston Center